Time;durP1;ratioP1;P1;durP2;ratioP2;P2;SDS_P1;SDS_P2;PMS_P1;PMS_P2;Temp;Humidity;BMP_temperature;BMP_pressure;BME280_temperature;BME280_humidity;BME280_pressure;Samples;Min_cycle;Max_cycle;Signal;HPM_P1;HPM_P2
2022/03/19 00:00:05;;;;;;;13.83;10.38;;;;;;;1.23;37.32;101763.69;1710713;83;21025;-69
2022/03/19 00:02:32;;;;;;;12.82;9.68;;;;;;;1.24;37.42;101765.41;1708972;83;21294;-69
2022/03/19 00:05:00;;;;;;;15.72;10.08;;;;;;;1.22;37.50;101756.76;1704433;83;20900;-69
2022/03/19 00:07:28;;;;;;;14.98;10.70;;;;;;;1.21;37.52;101750.23;1695251;83;20991;-69
2022/03/19 00:09:56;;;;;;;15.63;10.60;;;;;;;1.20;37.61;101748.06;1710132;83;21625;-68
2022/03/19 00:12:24;;;;;;;13.70;9.43;;;;;;;1.19;37.60;101747.69;1711099;83;21066;-69
2022/03/19 00:14:53;;;;;;;22.17;13.13;;;;;;;1.20;37.64;101756.38;1710281;83;21006;-68
2022/03/19 00:17:20;;;;;;;22.60;11.88;;;;;;;1.18;37.91;101750.34;1700518;83;20931;-69
2022/03/19 00:19:47;;;;;;;17.42;10.20;;;;;;;1.15;37.99;101747.38;1708482;83;20919;-68
2022/03/19 00:22:15;;;;;;;16.02;10.35;;;;;;;1.13;37.88;101743.11;1711066;83;20943;-70
2022/03/19 00:24:42;;;;;;;17.12;11.57;;;;;;;1.12;37.75;101747.48;1710774;83;21019;-69
2022/03/19 00:27:09;;;;;;;16.27;10.70;;;;;;;1.11;38.06;101740.55;1697839;83;21280;-69
2022/03/19 00:29:36;;;;;;;14.43;10.50;;;;;;;1.08;38.07;101740.66;1708551;83;20999;-68
2022/03/19 00:32:05;;;;;;;16.42;10.10;;;;;;;1.08;37.94;101744.59;1700426;83;21528;-68
2022/03/19 00:34:32;;;;;;;12.65;9.50;;;;;;;1.10;37.80;101739.28;1710196;83;20927;-68
2022/03/19 00:37:01;;;;;;;17.87;10.75;;;;;;;1.11;37.80;101739.24;1704555;83;20899;-68
2022/03/19 00:39:28;;;;;;;16.75;10.23;;;;;;;1.13;37.95;101739.17;1705625;83;21842;-69
2022/03/19 00:41:56;;;;;;;15.72;10.00;;;;;;;1.16;38.07;101737.30;1710387;83;21057;-69
2022/03/19 00:44:23;;;;;;;17.82;10.70;;;;;;;1.17;38.15;101733.75;1711261;83;20972;-69
2022/03/19 00:46:50;;;;;;;15.65;10.30;;;;;;;1.18;38.13;101739.86;1709728;83;20990;-69
2022/03/19 00:49:19;;;;;;;15.65;9.88;;;;;;;1.18;38.17;101736.78;1707630;83;20975;-68
2022/03/19 00:51:46;;;;;;;17.85;11.10;;;;;;;1.19;38.16;101737.20;1714563;83;21267;-69
2022/03/19 00:54:15;;;;;;;14.90;10.72;;;;;;;1.22;38.19;101740.16;1702302;83;20959;-70
2022/03/19 00:56:42;;;;;;;18.42;11.22;;;;;;;1.24;38.19;101741.81;1715054;83;20895;-69
2022/03/19 00:59:10;;;;;;;15.23;9.23;;;;;;;1.23;38.18;101733.53;1705819;83;20895;-69
2022/03/19 01:01:38;;;;;;;16.02;10.63;;;;;;;1.24;38.21;101740.50;1717223;83;20844;-69
2022/03/19 01:04:06;;;;;;;16.27;10.43;;;;;;;1.25;38.26;101736.95;1713215;83;21504;-69
2022/03/19 01:06:34;;;;;;;15.05;10.40;;;;;;;1.25;38.29;101732.19;1713642;83;20971;-69
2022/03/19 01:09:03;;;;;;;15.65;10.40;;;;;;;1.25;38.26;101725.14;1707171;83;21018;-69
2022/03/19 01:11:32;;;;;;;15.68;10.35;;;;;;;1.25;38.27;101729.08;1717270;83;20955;-69
2022/03/19 01:14:01;;;;;;;14.58;10.20;;;;;;;1.27;38.25;101729.49;1698840;83;21030;-69
2022/03/19 01:16:29;;;;;;;13.65;9.35;;;;;;;1.26;38.29;101732.56;1704718;83;20986;-69
2022/03/19 01:18:56;;;;;;;14.75;9.08;;;;;;;1.23;38.31;101733.53;1684750;83;20998;-69
2022/03/19 01:21:25;;;;;;;14.73;9.80;;;;;;;1.22;38.33;101733.61;1700383;83;21037;-70
2022/03/19 01:23:53;;;;;;;13.78;9.85;;;;;;;1.23;38.33;101732.67;1717234;83;21501;-69
2022/03/19 01:26:20;;;;;;;15.30;10.68;;;;;;;1.22;38.38;101737.54;1718240;83;20947;-69
2022/03/19 01:28:48;;;;;;;16.87;10.25;;;;;;;1.21;38.45;101734.05;1706729;83;21266;-70
2022/03/19 01:31:17;;;;;;;17.42;9.80;;;;;;;1.20;38.62;101733.64;1705808;83;20887;-70
2022/03/19 01:33:44;;;;;;;17.30;10.85;;;;;;;1.20;38.79;101731.47;1717262;83;20907;-69
2022/03/19 01:36:13;;;;;;;17.10;11.22;;;;;;;1.21;38.92;101739.30;1712780;83;21026;-70
2022/03/19 01:38:41;;;;;;;16.48;11.05;;;;;;;1.18;39.04;101735.92;1703232;83;21567;-69
2022/03/19 01:41:08;;;;;;;19.27;11.60;;;;;;;1.13;39.19;101729.55;1707526;83;21266;-68
2022/03/19 01:43:37;;;;;;;17.25;11.38;;;;;;;1.13;39.31;101732.62;1706220;83;20939;-70
2022/03/19 01:46:07;;;;;;;20.95;12.30;;;;;;;1.13;39.33;101740.03;1708166;83;20978;-69
2022/03/19 01:48:35;;;;;;;21.52;12.55;;;;;;;1.13;39.39;101740.03;1717279;83;20951;-69
2022/03/19 01:51:03;;;;;;;18.20;12.00;;;;;;;1.13;39.65;101738.72;1704605;83;21025;-69
2022/03/19 01:53:31;;;;;;;18.15;10.88;;;;;;;1.13;39.70;101739.17;1717789;83;21275;-69
2022/03/19 01:56:00;;;;;;;19.48;11.95;;;;;;;1.13;39.64;101736.10;1704352;83;21061;-68
2022/03/19 01:58:29;;;;;;;17.27;12.73;;;;;;;1.10;39.61;101736.20;1718233;83;20947;-69
2022/03/19 02:00:56;;;;;;;20.97;11.95;;;;;;;1.08;39.69;101747.22;1690621;83;21097;-70
2022/03/19 02:03:24;;;;;;;20.27;12.10;;;;;;;1.07;39.78;101748.11;1717983;83;21728;-70
2022/03/19 02:05:52;;;;;;;20.97;13.30;;;;;;;1.05;39.88;101748.63;1703012;83;21302;-69
2022/03/19 02:08:21;;;;;;;20.15;12.88;;;;;;;1.03;39.98;101749.15;1711569;83;20891;-69
2022/03/19 02:10:49;;;;;;;15.18;10.80;;;;;;;1.01;39.95;101750.98;1717475;83;21038;-69
2022/03/19 02:13:18;;;;;;;15.18;9.78;;;;;;;1.01;39.92;101749.66;1718337;83;20856;-69
2022/03/19 02:15:45;;;;;;;17.27;11.35;;;;;;;1.01;39.92;101748.80;1709142;83;21101;-70
2022/03/19 02:18:14;;;;;;;18.30;10.60;;;;;;;1.02;39.91;101755.73;1713639;83;20979;-70
2022/03/19 02:20:42;;;;;;;16.23;10.45;;;;;;;1.00;39.97;101750.56;1717408;83;20986;-69
2022/03/19 02:26:10;;;;;;;16.77;11.93;;;;;;;1.00;40.08;101759.73;1709596;83;21029;-70
2022/03/19 02:28:37;;;;;;;23.15;14.05;;;;;;;0.98;40.17;101755.02;1711201;83;21465;-67
2022/03/19 02:31:05;;;;;;;26.75;16.15;;;;;;;0.96;40.28;101755.98;1707663;83;21301;-70
2022/03/19 02:33:33;;;;;;;26.25;15.38;;;;;;;0.93;40.38;101760.02;1717462;83;21038;-69
2022/03/19 02:36:01;;;;;;;24.77;16.17;;;;;;;0.89;40.46;101759.25;1691109;83;20989;-70
2022/03/19 02:38:29;;;;;;;22.13;14.30;;;;;;;0.86;40.51;101758.05;1696591;83;21012;-70
2022/03/19 02:40:56;;;;;;;26.80;14.60;;;;;;;0.81;40.60;101761.29;1715268;83;21006;-69
2022/03/19 02:43:23;;;;;;;19.73;14.98;;;;;;;0.76;40.68;101760.59;1718348;83;21647;-69
2022/03/19 02:45:51;;;;;;;19.90;13.98;;;;;;;0.72;40.85;101760.77;1717300;83;21529;-69
2022/03/19 02:48:18;;;;;;;23.25;14.95;;;;;;;0.66;40.88;101760.96;1709461;83;20864;-69
2022/03/19 02:50:45;;;;;;;23.42;14.98;;;;;;;0.57;40.97;101758.23;1716310;83;21062;-69
2022/03/19 02:53:14;;;;;;;29.45;15.10;;;;;;;0.49;41.05;101760.25;1718083;83;21033;-70
2022/03/19 02:55:42;;;;;;;23.45;14.23;;;;;;;0.44;41.11;101765.61;1717638;83;21841;-69
2022/03/19 02:58:09;;;;;;;21.80;14.20;;;;;;;0.40;41.23;101759.23;1705942;83;20930;-69
2022/03/19 03:00:37;;;;;;;19.87;12.98;;;;;;;0.37;41.34;101761.95;1714083;83;20978;-70
2022/03/19 03:03:04;;;;;;;21.30;14.18;;;;;;;0.34;41.80;101766.00;1718506;83;21059;-70
2022/03/19 03:05:34;;;;;;;22.98;14.73;;;;;;;0.26;42.26;101764.91;1717516;83;20923;-71
2022/03/19 03:08:03;;;;;;;21.80;13.10;;;;;;;0.19;42.55;101763.41;1711727;83;21229;-70
2022/03/19 03:10:30;;;;;;;22.25;14.53;;;;;;;0.08;42.80;101764.20;1713456;83;20871;-70
2022/03/19 03:12:59;;;;;;;21.15;13.72;;;;;;;-0.05;42.93;101767.66;1696424;83;21007;-70
2022/03/19 03:15:26;;;;;;;26.65;15.20;;;;;;;-0.19;43.24;101774.25;1717745;83;21012;-70
2022/03/19 03:17:53;;;;;;;25.00;16.45;;;;;;;-0.30;43.58;101771.09;1710954;83;21576;-70
2022/03/19 03:20:22;;;;;;;29.25;16.80;;;;;;;-0.41;43.90;101777.09;1712001;83;21442;-70
2022/03/19 03:22:50;;;;;;;26.87;16.52;;;;;;;-0.52;44.12;101776.09;1717519;83;21001;-69
2022/03/19 03:25:19;;;;;;;29.00;18.42;;;;;;;-0.61;44.38;101782.92;1718294;83;20860;-70
2022/03/19 03:27:46;;;;;;;29.20;15.85;;;;;;;-0.69;44.59;101778.36;1702444;83;21033;-69
2022/03/19 03:30:18;;;;;;;26.87;16.50;;;;;;;-0.78;44.87;101779.47;1718316;83;21056;-69
2022/03/19 03:32:44;;;;;;;25.50;16.27;;;;;;;-0.82;45.35;101776.55;1717339;83;21262;-68
2022/03/19 03:35:11;;;;;;;29.55;17.82;;;;;;;-0.89;45.68;101777.62;1718586;83;20860;-69
2022/03/19 03:37:40;;;;;;;23.05;15.00;;;;;;;-0.96;46.02;101777.37;1714619;83;20977;-69
2022/03/19 03:40:08;;;;;;;26.10;16.85;;;;;;;-1.04;46.29;101778.50;1718503;83;21456;-69
2022/03/19 03:42:41;;;;;;;32.58;19.73;;;;;;;-1.11;46.43;101778.23;1717379;83;20954;-69
2022/03/19 03:45:10;;;;;;;33.20;19.70;;;;;;;-1.15;46.56;101775.31;1718270;83;20915;-69
2022/03/19 03:47:38;;;;;;;30.45;17.60;;;;;;;-1.20;46.67;101781.11;1704471;83;21072;-69
2022/03/19 03:50:09;;;;;;;31.02;17.30;;;;;;;-1.25;46.81;101778.16;1696790;83;20936;-69
2022/03/19 03:52:38;;;;;;;31.27;18.07;;;;;;;-1.28;47.02;101791.28;1710326;83;20940;-69
2022/03/19 03:55:07;;;;;;;31.37;18.87;;;;;;;-1.30;47.18;101791.78;1710775;83;20951;-69
2022/03/19 03:57:35;;;;;;;31.73;17.95;;;;;;;-1.34;47.34;101791.91;1707791;83;21251;-69
2022/03/19 04:00:04;;;;;;;33.13;18.73;;;;;;;-1.36;47.48;101793.27;1693529;83;20887;-70
2022/03/19 04:02:36;;;;;;;34.53;19.30;;;;;;;-1.37;47.85;101792.84;1675969;85;20970;-69
2022/03/19 04:05:06;;;;;;;36.85;19.90;;;;;;;-1.36;48.27;101794.57;1657700;86;20992;-69
2022/03/19 04:07:35;;;;;;;39.20;22.02;;;;;;;-1.34;48.56;101797.13;1654928;86;21545;-69
2022/03/19 04:10:04;;;;;;;38.85;19.65;;;;;;;-1.34;48.86;101796.69;1647623;86;21267;-69
2022/03/19 04:12:33;;;;;;;33.23;17.80;;;;;;;-1.32;48.95;101798.80;1708203;84;20896;-68
2022/03/19 04:15:01;;;;;;;28.50;17.12;;;;;;;-1.28;48.60;101797.81;1708008;84;20915;-69
2022/03/19 04:17:28;;;;;;;25.20;15.70;;;;;;;-1.24;48.33;101792.07;1706607;84;21062;-69
2022/03/19 04:19:55;;;;;;;22.93;15.03;;;;;;;-1.18;48.14;101789.75;1697497;84;21090;-70
2022/03/19 04:22:41;;;;;;;25.92;15.23;;;;;;;-1.15;48.00;101787.06;1708780;84;21951;-69
2022/03/19 04:25:14;;;;;;;25.90;15.28;;;;;;;-1.11;47.65;101786.07;1708518;84;20921;-70
2022/03/19 04:27:42;;;;;;;24.57;16.60;;;;;;;-1.06;47.49;101787.66;1702876;84;20864;-69
2022/03/19 04:30:13;;;;;;;29.45;15.32;;;;;;;-1.02;47.38;101791.06;1697070;84;20939;-69
2022/03/19 04:32:45;;;;;;;23.32;14.75;;;;;;;-1.02;47.30;101787.14;1675310;85;20908;-69
2022/03/19 04:38:00;;;;;;;34.50;20.77;;;;;;;-0.99;47.38;101784.45;1652427;86;21514;-69
2022/03/19 04:40:29;;;;;;;50.88;24.32;;;;;;;-0.89;47.78;101788.52;1652137;86;21008;-68
2022/03/19 04:42:57;;;;;;;63.00;28.80;;;;;;;-0.73;48.04;101789.81;1689060;83;20916;-69
2022/03/19 04:45:24;;;;;;;46.30;23.02;;;;;;;-0.46;48.22;101788.14;1711265;83;21081;-69
2022/03/19 04:47:52;;;;;;;30.72;18.48;;;;;;;-0.12;47.98;101795.38;1706708;83;21348;-69
2022/03/19 04:50:19;;;;;;;27.82;17.45;;;;;;;0.25;47.18;101799.87;1707365;83;21402;-69
2022/03/19 04:52:47;;;;;;;27.22;15.98;;;;;;;0.71;46.20;101802.27;1717434;83;20995;-69
2022/03/19 04:55:14;;;;;;;29.32;17.00;;;;;;;1.20;45.14;101792.64;1718309;83;21025;-69
2022/03/19 04:57:43;;;;;;;31.15;17.23;;;;;;;1.75;44.04;101790.58;1715498;83;20935;-68
2022/03/19 05:00:13;;;;;;;33.45;19.07;;;;;;;2.28;42.94;101784.09;1709747;83;21402;-69
2022/03/19 05:02:40;;;;;;;54.33;27.30;;;;;;;2.77;41.77;101782.03;1717334;83;20855;-68
2022/03/19 05:05:09;;;;;;;61.75;30.85;;;;;;;3.23;40.71;101780.91;1718308;83;20875;-69
2022/03/19 05:07:37;;;;;;;66.28;32.65;;;;;;;3.71;40.80;101779.52;1716448;83;20915;-69
2022/03/19 05:12:53;;;;;;;52.10;27.70;;;;;;;4.50;38.55;101777.00;1717511;83;21278;-69
2022/03/19 05:15:21;;;;;;;58.87;31.37;;;;;;;4.91;37.45;101777.53;1718184;83;20876;-69
2022/03/19 05:17:48;;;;;;;79.32;39.80;;;;;;;5.26;36.57;101777.02;1714272;83;20935;-69
2022/03/19 05:20:16;;;;;;;77.62;39.55;;;;;;;5.63;35.88;101779.41;1695963;83;21496;-68
2022/03/19 05:22:43;;;;;;;68.83;36.58;;;;;;;6.03;35.24;101780.70;1682997;85;20998;-70
2022/03/19 05:25:12;;;;;;;57.23;31.35;;;;;;;6.42;34.68;101771.83;1685060;84;20913;-69
2022/03/19 05:27:39;;;;;;;56.18;32.05;;;;;;;6.75;34.04;101767.70;1670645;85;20960;-70
2022/03/19 05:30:09;;;;;;;50.08;28.90;;;;;;;7.06;33.68;101776.83;1704244;83;20994;-69
2022/03/19 05:32:38;;;;;;;46.42;26.75;;;;;;;7.44;33.08;101782.42;1712307;83;20979;-70
2022/03/19 05:35:08;;;;;;;40.20;23.73;;;;;;;7.80;32.33;101786.73;1712997;83;20951;-69
2022/03/19 05:37:35;;;;;;;39.35;24.18;;;;;;;8.16;31.86;101784.84;1712207;83;21127;-69
2022/03/19 05:40:08;;;;;;;36.60;22.95;;;;;;;8.57;31.24;101788.34;1700696;83;20975;-68
2022/03/19 05:42:36;;;;;;;40.08;23.85;;;;;;;8.96;30.52;101783.48;1712228;83;20983;-69
2022/03/19 05:45:04;;;;;;;40.03;23.77;;;;;;;9.27;29.95;101780.89;1713103;83;21431;-69
2022/03/19 05:47:34;;;;;;;33.73;21.95;;;;;;;9.57;29.50;101778.73;1705851;83;21579;-70
2022/03/19 05:50:04;;;;;;;34.98;21.80;;;;;;;9.96;28.95;101782.17;1700545;83;21635;-70
2022/03/19 05:52:33;;;;;;;31.97;20.27;;;;;;;10.30;28.61;101781.41;1711935;83;20891;-71
2022/03/19 05:55:00;;;;;;;35.03;22.20;;;;;;;10.76;28.33;101782.84;1713099;83;20940;-70
2022/03/19 05:57:28;;;;;;;31.75;21.48;;;;;;;11.24;27.85;101781.73;1713311;83;21128;-69
2022/03/19 05:59:55;;;;;;;28.47;20.43;;;;;;;11.62;27.26;101781.41;1702950;83;21005;-70
2022/03/19 06:02:23;;;;;;;31.07;22.67;;;;;;;11.98;26.79;101784.30;1706243;83;21245;-70
2022/03/19 06:04:50;;;;;;;33.80;21.27;;;;;;;12.38;26.76;101780.91;1711898;83;21517;-70
2022/03/19 06:07:17;;;;;;;29.02;20.30;;;;;;;12.78;26.54;101783.79;1713093;83;20991;-70
2022/03/19 06:09:47;;;;;;;25.48;20.32;;;;;;;13.16;26.35;101779.72;1702536;83;20954;-69
2022/03/19 06:12:16;;;;;;;24.60;18.95;;;;;;;13.61;25.95;101781.06;1713084;83;20987;-71
2022/03/19 06:14:44;;;;;;;27.70;20.48;;;;;;;14.06;25.28;101785.03;1708317;83;21073;-70
2022/03/19 06:17:13;;;;;;;28.40;21.02;;;;;;;14.41;24.95;101781.04;1688737;83;20895;-70
2022/03/19 06:19:42;;;;;;;28.27;21.10;;;;;;;14.67;25.00;101786.20;1696265;83;20911;-70
2022/03/19 06:22:09;;;;;;;24.65;17.98;;;;;;;14.94;24.72;101779.59;1718323;83;20907;-70
2022/03/19 06:24:36;;;;;;;24.95;19.15;;;;;;;15.13;24.49;101778.72;1717680;83;21005;-70
2022/03/19 06:27:04;;;;;;;24.87;16.85;;;;;;;15.32;24.38;101781.37;1711798;83;21779;-70
2022/03/19 06:29:31;;;;;;;21.65;16.80;;;;;;;15.60;24.12;101779.11;1708384;83;20863;-70
2022/03/19 06:31:58;;;;;;;20.62;17.15;;;;;;;15.90;23.94;101777.47;1692099;83;20895;-70
2022/03/19 06:34:25;;;;;;;20.23;17.25;;;;;;;16.25;23.45;101777.20;1704233;83;21068;-70
2022/03/19 06:39:38;;;;;;;26.90;18.70;;;;;;;16.55;22.91;101776.39;1717899;83;22160;-71
2022/03/19 06:42:06;;;;;;;22.30;17.40;;;;;;;16.45;22.95;101786.83;1707339;83;20939;-70
2022/03/19 06:44:33;;;;;;;23.50;17.42;;;;;;;16.41;22.91;101784.09;1717427;83;20864;-70
2022/03/19 06:47:00;;;;;;;16.35;13.28;;;;;;;16.41;22.58;101784.09;1718481;83;20907;-70
2022/03/19 06:49:28;;;;;;;13.25;11.85;;;;;;;16.41;21.71;101787.62;1718389;83;21490;-69
2022/03/19 06:51:56;;;;;;;17.95;15.08;;;;;;;16.40;20.84;101789.95;1697734;83;21268;-70
2022/03/19 06:54:23;;;;;;;20.30;16.40;;;;;;;16.49;21.13;101785.02;1708888;83;20915;-71
2022/03/19 06:56:52;;;;;;;15.63;13.70;;;;;;;16.70;21.38;101787.43;1701620;83;21113;-70
2022/03/19 06:59:19;;;;;;;17.40;12.88;;;;;;;16.93;21.14;101795.35;1694575;83;21034;-71
2022/03/19 07:01:46;;;;;;;19.20;12.45;;;;;;;17.16;20.82;101793.00;1676510;85;21025;-70
2022/03/19 07:04:13;;;;;;;14.63;11.30;;;;;;;17.49;20.62;101786.00;1678264;85;21310;-70
2022/03/19 07:06:40;;;;;;;13.08;10.53;;;;;;;17.79;19.19;101787.69;1671601;85;21497;-69
2022/03/19 07:09:09;;;;;;;12.43;11.03;;;;;;;17.98;19.14;101788.44;1711861;83;20986;-67
2022/03/19 07:11:37;;;;;;;15.20;11.30;;;;;;;18.19;19.06;101788.35;1695522;83;20997;-67
2022/03/19 07:14:05;;;;;;;12.25;9.68;;;;;;;18.41;19.04;101785.02;1718486;83;20986;-69
2022/03/19 07:16:32;;;;;;;12.80;10.60;;;;;;;18.72;18.54;101785.78;1713234;83;22001;-69
2022/03/19 07:19:00;;;;;;;13.28;9.63;;;;;;;19.00;18.27;101788.47;1718189;83;21007;-68
2022/03/19 07:21:28;;;;;;;11.22;8.98;;;;;;;19.19;18.13;101786.75;1703568;83;20982;-67
2022/03/19 07:23:55;;;;;;;11.12;8.10;;;;;;;19.30;17.39;101786.90;1706945;83;21037;-68
2022/03/19 07:26:22;;;;;;;7.60;5.97;;;;;;;19.29;17.13;101790.13;1711193;83;20923;-69
2022/03/19 07:28:50;;;;;;;10.63;7.17;;;;;;;19.32;16.53;101791.11;1717668;83;21115;-68
2022/03/19 07:31:18;;;;;;;11.03;7.95;;;;;;;19.24;16.15;101792.47;1707915;83;21003;-65
2022/03/19 07:33:47;;;;;;;8.90;6.75;;;;;;;19.27;16.43;101793.98;1708504;83;20939;-67
2022/03/19 07:36:15;;;;;;;7.42;6.65;;;;;;;19.30;15.99;101798.55;1718238;83;20986;-68
2022/03/19 07:38:43;;;;;;;7.78;6.97;;;;;;;19.32;16.02;101792.46;1717400;83;20918;-67
2022/03/19 07:43:58;;;;;;;7.97;6.53;;;;;;;19.43;15.56;101785.39;1707002;83;20937;-67
2022/03/19 07:46:27;;;;;;;9.45;7.85;;;;;;;19.37;15.44;101785.22;1718310;83;20951;-67
2022/03/19 07:48:55;;;;;;;9.68;8.28;;;;;;;19.38;15.65;101789.12;1706728;83;22134;-68
2022/03/19 07:51:22;;;;;;;8.80;7.90;;;;;;;19.39;15.58;101788.61;1707689;83;20891;-65
2022/03/19 07:53:50;;;;;;;7.83;7.03;;;;;;;19.44;15.51;101792.48;1709745;83;20947;-65
2022/03/19 07:56:18;;;;;;;7.92;7.12;;;;;;;19.44;15.10;101795.19;1711171;83;20887;-69
2022/03/19 07:58:50;;;;;;;8.85;6.30;;;;;;;19.46;15.21;101796.35;1709701;83;21525;-68
2022/03/19 08:01:16;;;;;;;8.08;7.28;;;;;;;19.51;14.81;101796.67;1699663;83;20982;-67
2022/03/19 08:03:45;;;;;;;10.93;6.85;;;;;;;19.60;14.84;101798.34;1708950;83;20859;-68
2022/03/19 08:06:14;;;;;;;10.15;7.75;;;;;;;19.69;14.75;101801.34;1711072;83;21915;-67
2022/03/19 08:08:41;;;;;;;9.43;7.70;;;;;;;19.79;14.56;101802.52;1704150;83;20935;-68
2022/03/19 08:11:08;;;;;;;12.65;7.95;;;;;;;19.83;14.59;101797.08;1703950;83;20998;-68
2022/03/19 08:13:36;;;;;;;9.15;7.53;;;;;;;20.04;14.37;101813.55;1706467;83;21502;-68
2022/03/19 08:16:04;;;;;;;11.75;7.55;;;;;;;20.08;13.77;101802.20;1710979;83;21600;-68
2022/03/19 08:18:32;;;;;;;11.70;7.65;;;;;;;20.02;13.59;101798.84;1695438;83;21838;-67
2022/03/19 08:21:01;;;;;;;9.08;7.53;;;;;;;19.99;13.55;101798.38;1685944;83;20872;-67
2022/03/19 08:23:29;;;;;;;9.08;8.18;;;;;;;19.97;13.22;101797.71;1708476;83;21526;-66
2022/03/19 08:25:56;;;;;;;9.65;8.43;;;;;;;19.94;13.54;101801.61;1710360;83;20915;-68
2022/03/19 08:28:24;;;;;;;12.00;9.05;;;;;;;19.89;13.55;101803.15;1699936;83;20995;-65
2022/03/19 08:30:52;;;;;;;9.93;8.90;;;;;;;19.93;13.55;101805.81;1704862;83;21234;-70
2022/03/19 08:33:19;;;;;;;11.03;9.93;;;;;;;20.02;13.41;101808.83;1704625;83;20919;-69
2022/03/19 08:35:47;;;;;;;14.13;10.80;;;;;;;20.07;13.29;101809.99;1709699;83;21500;-70
2022/03/19 08:41:01;;;;;;;15.08;9.83;;;;;;;19.67;12.72;101820.44;1671867;85;20901;-70
2022/03/19 08:43:28;;;;;;;14.60;9.70;;;;;;;19.67;12.72;101820.44;1647261;86;21279;-64
2022/03/19 08:45:55;;;;;;;23.07;14.93;;;;;;;19.47;12.66;101828.59;1703470;84;21030;-67
2022/03/19 08:48:23;;;;;;;23.50;16.42;;;;;;;19.32;12.75;101818.62;1697747;84;20875;-69
2022/03/19 08:50:50;;;;;;;20.37;14.58;;;;;;;19.22;12.67;101820.64;1707368;84;21533;-70
2022/03/19 08:53:17;;;;;;;11.55;10.10;;;;;;;19.00;12.44;101831.13;1708030;84;20998;-70
2022/03/19 08:55:49;;;;;;;15.83;11.12;;;;;;;18.68;12.05;101824.85;1707065;84;21330;-67
2022/03/19 08:58:13;;;;;;;23.87;17.77;;;;;;;18.41;12.39;101833.52;1708437;83;20896;-68
2022/03/19 09:00:41;;;;;;;31.42;20.12;;;;;;;18.40;12.65;101838.59;1706914;84;20849;-67
2022/03/19 09:03:08;;;;;;;34.83;20.97;;;;;;;18.42;12.94;101833.03;1708998;84;21027;-67
2022/03/19 09:05:36;;;;;;;33.20;20.65;;;;;;;18.47;13.06;101831.56;1696773;84;21014;-69
2022/03/19 09:08:03;;;;;;;33.65;21.48;;;;;;;18.52;13.18;101821.62;1708139;84;21244;-68
2022/03/19 09:10:31;;;;;;;23.07;15.00;;;;;;;18.61;13.04;101826.04;1708455;84;21512;-68
2022/03/19 09:12:59;;;;;;;19.23;12.78;;;;;;;18.62;12.72;101826.36;1656619;85;21613;-68
2022/03/19 09:15:27;;;;;;;16.67;11.35;;;;;;;18.45;13.11;101833.55;1657948;86;21041;-66
2022/03/19 09:17:54;;;;;;;14.68;11.80;;;;;;;18.40;13.16;101837.75;1657028;86;21076;-66
2022/03/19 09:20:23;;;;;;;12.37;8.80;;;;;;;18.39;13.02;101841.44;1657807;86;20964;-69
2022/03/19 09:22:51;;;;;;;9.83;8.10;;;;;;;18.27;12.50;101844.10;1711040;83;21062;-67
2022/03/19 09:25:18;;;;;;;13.32;7.65;;;;;;;17.96;13.00;101833.05;1711433;83;20927;-68
2022/03/19 09:27:45;;;;;;;9.15;6.75;;;;;;;17.75;13.06;101837.98;1711084;83;21505;-68
2022/03/19 09:30:13;;;;;;;10.65;6.75;;;;;;;17.73;13.38;101839.97;1710778;83;20851;-68
2022/03/19 09:32:41;;;;;;;8.05;6.53;;;;;;;17.76;13.38;101847.23;1711046;83;21254;-68
2022/03/19 09:35:08;;;;;;;9.05;7.10;;;;;;;17.86;13.29;101836.34;1711261;83;20943;-69
2022/03/19 09:37:38;;;;;;;9.65;5.90;;;;;;;17.84;13.32;101831.62;1710374;83;20994;-67
2022/03/19 09:40:07;;;;;;;9.65;6.33;;;;;;;17.75;13.62;101833.42;1711290;83;20986;-68
2022/03/19 09:42:36;;;;;;;8.90;6.87;;;;;;;17.83;13.68;101831.30;1710132;83;20974;-70
2022/03/19 09:45:06;;;;;;;7.50;6.15;;;;;;;18.02;13.55;101823.45;1646228;83;21289;-68
2022/03/19 09:47:34;;;;;;;9.68;6.92;;;;;;;18.21;13.45;101821.34;1711079;83;20900;-68
2022/03/19 09:50:01;;;;;;;10.05;8.10;;;;;;;18.55;13.48;101822.65;1668394;83;21431;-68
2022/03/19 09:52:29;;;;;;;9.15;7.90;;;;;;;18.97;13.19;101819.82;1693405;83;21001;-67
2022/03/19 09:55:03;;;;;;;14.03;11.03;;;;;;;19.26;13.14;101813.91;1720519;83;20986;-68
2022/03/19 09:57:30;;;;;;;19.70;13.28;;;;;;;19.55;12.83;101827.73;1720566;83;21312;-68
2022/03/19 09:59:57;;;;;;;17.77;13.03;;;;;;;19.49;12.67;101819.80;1699011;83;20946;-68
2022/03/19 10:02:25;;;;;;;11.73;9.88;;;;;;;19.10;12.68;101823.70;1721274;83;21682;-69
2022/03/19 10:04:57;;;;;;;14.07;10.03;;;;;;;18.67;12.99;101819.95;1720469;83;21013;-68
2022/03/19 10:10:11;;;;;;;14.43;9.58;;;;;;;18.49;13.41;101825.99;1721994;83;21252;-67
2022/03/19 10:12:41;;;;;;;10.63;7.87;;;;;;;18.71;13.45;101817.78;1720837;83;20979;-70
2022/03/19 10:15:10;;;;;;;6.08;5.22;;;;;;;18.75;13.56;101821.81;1693899;83;20998;-69
2022/03/19 10:17:39;;;;;;;7.33;5.00;;;;;;;18.29;13.58;101818.69;1719825;83;21450;-69
2022/03/19 10:20:12;;;;;;;7.35;5.17;;;;;;;17.94;13.64;101825.61;1720726;83;21541;-67
2022/03/19 10:22:45;;;;;;;8.23;4.90;;;;;;;17.80;13.78;101820.84;1720405;83;21214;-67
2022/03/19 10:25:17;;;;;;;7.75;4.95;;;;;;;17.64;13.75;101817.57;1721300;83;20883;-68
2022/03/19 10:27:44;;;;;;;5.95;4.72;;;;;;;17.42;13.93;101821.24;1720463;83;20938;-68
2022/03/19 10:30:20;;;;;;;6.03;4.90;;;;;;;17.22;14.07;101823.31;1721277;83;20912;-67
2022/03/19 10:32:52;;;;;;;5.05;3.90;;;;;;;17.06;14.32;101821.34;1720496;83;20939;-69
2022/03/19 10:35:37;;;;;;;4.60;4.20;;;;;;;16.92;14.29;101821.06;1720826;83;21249;-67
2022/03/19 10:38:25;;;;;;;4.90;4.40;;;;;;;16.77;14.21;101815.86;1702253;83;21021;-67
2022/03/19 10:40:53;;;;;;;6.22;5.03;;;;;;;16.58;14.26;101814.20;1720476;83;21037;-70
2022/03/19 10:43:23;;;;;;;5.97;4.28;;;;;;;16.33;14.16;101825.14;1720785;83;21418;-68
2022/03/19 10:45:54;;;;;;;6.53;4.20;;;;;;;15.90;14.41;101817.73;1720464;83;21030;-67
2022/03/19 10:48:25;;;;;;;5.60;4.58;;;;;;;15.46;14.55;101822.48;1721348;83;21497;-69
2022/03/19 10:50:53;;;;;;;5.45;4.90;;;;;;;15.02;14.66;101815.06;1701702;83;21073;-68
2022/03/19 10:53:21;;;;;;;6.03;4.60;;;;;;;14.59;15.01;101817.70;1718575;83;20963;-69
2022/03/19 10:55:49;;;;;;;7.35;5.53;;;;;;;14.33;15.29;101813.87;1717784;83;21062;-69
2022/03/19 10:58:16;;;;;;;7.80;5.37;;;;;;;14.19;15.38;101810.20;1718454;83;20994;-69
2022/03/19 11:00:47;;;;;;;5.30;4.80;;;;;;;14.10;15.64;101808.36;1717401;83;21258;-67
2022/03/19 11:03:18;;;;;;;5.30;4.72;;;;;;;14.05;15.82;101811.95;1718201;83;20943;-67
2022/03/19 11:05:45;;;;;;;6.15;5.08;;;;;;;13.98;15.69;101808.95;1689426;83;21074;-67
2022/03/19 11:08:16;;;;;;;5.28;4.78;;;;;;;13.93;15.77;101813.02;1718322;83;20907;-68
2022/03/19 11:10:44;;;;;;;6.15;4.90;;;;;;;13.86;15.93;101813.20;1717542;83;20880;-68
2022/03/19 11:13:11;;;;;;;7.00;5.80;;;;;;;13.76;15.93;101808.31;1690886;83;21162;-69
2022/03/19 11:15:40;;;;;;;9.30;6.87;;;;;;;13.59;16.11;101809.78;1690346;83;20900;-68
2022/03/19 11:18:08;;;;;;;8.43;7.62;;;;;;;13.46;16.22;101802.47;1718408;83;20950;-68
2022/03/19 11:20:35;;;;;;;8.25;7.22;;;;;;;13.44;16.23;101807.11;1717674;83;21579;-67
2022/03/19 11:23:04;;;;;;;9.25;7.78;;;;;;;13.32;16.16;101806.33;1718421;83;20876;-68
2022/03/19 11:25:46;;;;;;;9.65;8.48;;;;;;;13.10;16.37;101807.81;1717631;83;21309;-68
2022/03/19 11:28:13;;;;;;;9.58;8.68;;;;;;;12.94;16.34;101804.71;1702375;83;20848;-67
2022/03/19 11:30:46;;;;;;;10.90;8.08;;;;;;;12.87;16.28;101796.87;1717378;83;20888;-67
2022/03/19 11:33:19;;;;;;;10.98;8.28;;;;;;;12.83;16.43;101796.75;1691605;83;21465;-68
2022/03/19 11:36:03;;;;;;;16.45;8.38;;;;;;;12.84;16.69;101789.95;1717648;83;20915;-68
2022/03/19 11:38:32;;;;;;;9.10;7.60;;;;;;;12.87;16.69;101794.19;1707588;83;21231;-67
2022/03/19 11:41:00;;;;;;;9.38;7.62;;;;;;;12.88;16.96;101791.86;1696561;83;20947;-68